Time;durP1;ratioP1;P1;durP2;ratioP2;P2;SDS_P1;SDS_P2;PMS_P1;PMS_P2;Temp;Humidity;BMP_temperature;BMP_pressure;BME280_temperature;BME280_humidity;BME280_pressure;Samples;Min_cycle;Max_cycle;Signal;HPM_P1;HPM_P2
2021/04/29 00:01:39;;;;;;;17.90;8.63;;;11.50;92.90;;;;;;3544765;40;20093;-65
2021/04/29 00:04:04;;;;;;;16.23;8.43;;;11.60;92.50;;;;;;3550911;40;20188;-64
2021/04/29 00:06:30;;;;;;;14.80;8.30;;;11.60;92.50;;;;;;3541097;40;20026;-64
2021/04/29 00:08:56;;;;;;;19.58;8.60;;;11.50;92.60;;;;;;3542991;40;20042;-67
2021/04/29 00:11:22;;;;;;;20.42;8.52;;;11.60;92.30;;;;;;3546056;40;20042;-64
2021/04/29 00:13:47;;;;;;;17.45;8.57;;;11.60;92.30;;;;;;3543314;40;20042;-67
2021/04/29 00:16:13;;;;;;;18.08;9.32;;;11.60;92.20;;;;;;3541693;40;20027;-67
2021/04/29 00:18:39;;;;;;;16.85;8.57;;;11.60;92.30;;;;;;3542710;40;20054;-67
2021/04/29 00:21:04;;;;;;;16.38;8.35;;;11.50;92.30;;;;;;3545118;40;20412;-67
2021/04/29 00:23:31;;;;;;;14.55;8.38;;;11.50;92.50;;;;;;3545933;40;20026;-67
2021/04/29 00:25:56;;;;;;;15.32;8.48;;;11.60;92.60;;;;;;3543260;40;20042;-67
2021/04/29 00:28:23;;;;;;;17.92;8.50;;;11.50;92.40;;;;;;3543522;40;20034;-67
2021/04/29 00:30:49;;;;;;;20.35;8.50;;;11.60;92.70;;;;;;3552043;40;20046;-67
2021/04/29 00:33:15;;;;;;;16.92;8.60;;;11.60;92.50;;;;;;3547991;40;20038;-67
2021/04/29 00:35:41;;;;;;;18.25;8.45;;;11.60;92.40;;;;;;3549848;40;20030;-67
2021/04/29 00:38:07;;;;;;;15.38;8.43;;;11.70;92.00;;;;;;3557834;40;20030;-67
2021/04/29 00:40:33;;;;;;;17.70;8.25;;;11.60;92.00;;;;;;3548915;40;20153;-67
2021/04/29 00:42:59;;;;;;;17.90;9.80;;;11.60;92.10;;;;;;3546996;40;20034;-67
2021/04/29 00:45:25;;;;;;;20.70;8.55;;;11.50;91.90;;;;;;3544994;40;20038;-67
2021/04/29 00:47:52;;;;;;;13.63;7.90;;;11.50;92.10;;;;;;3542562;40;20038;-67
2021/04/29 00:50:21;;;;;;;16.52;8.52;;;11.50;92.30;;;;;;3543261;40;20051;-67
2021/04/29 00:52:47;;;;;;;19.10;9.48;;;11.50;92.70;;;;;;3545587;40;20076;-67
2021/04/29 00:55:13;;;;;;;17.45;8.68;;;11.50;92.40;;;;;;3547785;40;20034;-67
2021/04/29 00:57:39;;;;;;;16.45;8.00;;;11.50;92.70;;;;;;3550009;40;20045;-67
2021/04/29 01:00:07;;;;;;;18.55;8.63;;;11.40;92.40;;;;;;3545729;40;20054;-67
2021/04/29 01:02:36;;;;;;;15.57;7.65;;;11.50;92.50;;;;;;3544918;40;20566;-67
2021/04/29 01:05:18;;;;;;;15.13;8.02;;;11.50;92.60;;;;;;3546749;40;20050;-67
2021/04/29 01:07:58;;;;;;;18.35;8.80;;;11.40;92.50;;;;;;3545110;40;20046;-67
2021/04/29 01:10:26;;;;;;;16.48;8.00;;;11.40;92.70;;;;;;3550273;40;20115;-67
2021/04/29 01:12:55;;;;;;;17.55;8.02;;;11.40;92.60;;;;;;3548623;40;20037;-64
2021/04/29 01:15:23;;;;;;;14.65;7.95;;;11.40;92.90;;;;;;3547209;40;20678;-64
2021/04/29 01:17:49;;;;;;;16.10;7.85;;;11.40;92.60;;;;;;3548728;40;20418;-64
2021/04/29 01:20:23;;;;;;;12.95;7.60;;;11.50;92.70;;;;;;3550383;40;20034;-64
2021/04/29 01:23:24;;;;;;;17.67;8.55;;;11.50;92.40;;;;;;3549286;40;20065;-64
2021/04/29 01:25:57;;;;;;;15.75;7.85;;;11.50;92.50;;;;;;3532832;40;20303;-64
2021/04/29 01:28:26;;;;;;;14.90;8.15;;;11.50;92.50;;;;;;3544477;40;20451;-64
2021/04/29 01:30:52;;;;;;;14.95;7.15;;;11.40;92.50;;;;;;3542699;40;20513;-65
2021/04/29 01:33:18;;;;;;;18.13;7.93;;;11.50;92.50;;;;;;3549932;40;20049;-64
2021/04/29 01:35:44;;;;;;;19.50;7.65;;;11.40;92.70;;;;;;3546289;40;20034;-64
2021/04/29 01:38:10;;;;;;;15.25;7.50;;;11.50;93.10;;;;;;3548490;40;20393;-67
2021/04/29 01:40:37;;;;;;;14.68;7.38;;;11.50;92.60;;;;;;3551747;40;20030;-67
2021/04/29 01:43:04;;;;;;;16.27;7.25;;;11.50;92.90;;;;;;3550524;40;20537;-67
2021/04/29 01:45:30;;;;;;;17.33;7.63;;;11.50;93.10;;;;;;3547633;40;20033;-67
2021/04/29 01:47:56;;;;;;;17.27;8.60;;;11.50;92.70;;;;;;3547337;40;20054;-67
2021/04/29 01:50:22;;;;;;;18.02;7.57;;;11.50;92.90;;;;;;3543227;40;20541;-67
2021/04/29 01:52:48;;;;;;;15.93;7.93;;;11.50;92.90;;;;;;3541750;40;20022;-67
2021/04/29 01:55:14;;;;;;;15.32;8.32;;;11.50;92.30;;;;;;3543758;40;20041;-67
2021/04/29 01:57:40;;;;;;;15.35;8.60;;;11.50;92.20;;;;;;3546562;40;20100;-67
2021/04/29 02:00:09;;;;;;;15.75;7.90;;;11.60;92.00;;;;;;3548228;40;20045;-67
2021/04/29 02:02:35;;;;;;;19.23;8.60;;;11.60;91.80;;;;;;3544060;40;20696;-67
2021/04/29 02:05:01;;;;;;;15.90;7.70;;;11.50;92.00;;;;;;3543132;40;20038;-67
2021/04/29 02:07:27;;;;;;;20.35;8.82;;;11.50;92.10;;;;;;3545796;40;20033;-67
2021/04/29 02:09:53;;;;;;;29.98;9.10;;;11.50;91.90;;;;;;3547597;40;20049;-67
2021/04/29 02:12:19;;;;;;;15.10;7.63;;;11.50;92.40;;;;;;3550726;40;20049;-68
2021/04/29 02:14:49;;;;;;;15.52;8.77;;;11.40;92.00;;;;;;3550555;40;20157;-64
2021/04/29 02:17:53;;;;;;;18.77;8.75;;;11.40;92.20;;;;;;3548826;40;20086;-64
2021/04/29 02:20:22;;;;;;;18.55;7.90;;;11.30;92.40;;;;;;3544265;40;20132;-64
2021/04/29 02:22:49;;;;;;;21.40;8.30;;;11.40;92.20;;;;;;3543804;40;20053;-64
2021/04/29 02:25:15;;;;;;;22.42;9.10;;;11.40;92.20;;;;;;3543303;40;20420;-64
2021/04/29 02:27:41;;;;;;;18.35;7.30;;;11.40;92.30;;;;;;3545796;40;20324;-64
2021/04/29 02:30:14;;;;;;;21.08;8.32;;;11.40;92.90;;;;;;3548234;40;20345;-64
2021/04/29 02:32:40;;;;;;;14.85;7.97;;;11.30;92.50;;;;;;3545000;40;20049;-64
2021/04/29 02:35:09;;;;;;;22.92;8.15;;;11.20;92.80;;;;;;3542904;40;20419;-64
2021/04/29 02:37:36;;;;;;;18.10;8.05;;;11.20;93.10;;;;;;3544242;40;20038;-64
2021/04/29 02:40:04;;;;;;;20.92;7.85;;;11.20;92.80;;;;;;3546914;40;20100;-64
2021/04/29 02:42:30;;;;;;;19.20;8.63;;;11.20;93.00;;;;;;3548818;40;20556;-64
2021/04/29 02:44:56;;;;;;;13.32;7.35;;;11.20;93.00;;;;;;3552577;40;20111;-64
2021/04/29 02:47:22;;;;;;;14.82;8.02;;;11.20;93.10;;;;;;3556903;40;20034;-64
2021/04/29 02:49:50;;;;;;;16.30;7.35;;;11.20;93.20;;;;;;3551963;40;20067;-64
2021/04/29 02:52:17;;;;;;;16.98;7.88;;;11.20;93.30;;;;;;3552927;40;20265;-66
2021/04/29 02:54:43;;;;;;;14.80;7.40;;;11.30;94.00;;;;;;3551619;40;20046;-67
2021/04/29 02:57:09;;;;;;;16.63;8.35;;;11.30;94.10;;;;;;3551871;40;20042;-67
2021/04/29 02:59:41;;;;;;;22.50;8.35;;;11.30;94.90;;;;;;3549229;40;20050;-69
2021/04/29 03:02:09;;;;;;;16.70;8.27;;;11.20;95.00;;;;;;3548479;40;20703;-64
2021/04/29 03:04:35;;;;;;;15.32;8.20;;;11.20;95.30;;;;;;3549120;40;20106;-64
2021/04/29 03:07:01;;;;;;;15.60;7.88;;;11.30;96.20;;;;;;3551224;40;20042;-64
2021/04/29 03:09:27;;;;;;;13.63;7.47;;;11.20;95.50;;;;;;3549190;40;20038;-64
2021/04/29 03:11:52;;;;;;;16.35;7.95;;;11.10;96.20;;;;;;3549784;40;20045;-64
2021/04/29 03:14:18;;;;;;;17.48;8.82;;;11.00;95.20;;;;;;3548917;40;20041;-64
2021/04/29 03:16:44;;;;;;;12.65;7.30;;;11.10;96.20;;;;;;3552254;40;20048;-64
2021/04/29 03:19:09;;;;;;;14.88;7.50;;;11.00;95.50;;;;;;3550487;40;20082;-64
2021/04/29 03:21:35;;;;;;;17.98;7.60;;;11.00;96.30;;;;;;3548789;40;20038;-64
2021/04/29 03:24:02;;;;;;;14.80;8.43;;;11.00;96.70;;;;;;3553059;40;20050;-64
2021/04/29 03:26:28;;;;;;;18.48;8.07;;;10.90;96.40;;;;;;3558688;40;20086;-64
2021/04/29 03:28:53;;;;;;;18.67;8.57;;;10.90;95.70;;;;;;3550274;40;20034;-64
2021/04/29 03:31:19;;;;;;;19.48;8.27;;;10.90;95.30;;;;;;3547882;40;20046;-64
2021/04/29 03:33:45;;;;;;;14.88;8.07;;;11.00;95.60;;;;;;3551833;40;20150;-64
2021/04/29 03:36:10;;;;;;;13.98;8.23;;;11.00;95.40;;;;;;3549667;40;20166;-64
2021/04/29 03:38:36;;;;;;;14.95;7.97;;;10.80;95.30;;;;;;3549313;40;20046;-64
2021/04/29 03:41:02;;;;;;;13.18;7.45;;;10.90;96.30;;;;;;3544493;40;20041;-64
2021/04/29 03:43:27;;;;;;;15.57;8.38;;;10.90;96.30;;;;;;3548834;40;20042;-64
2021/04/29 03:45:53;;;;;;;16.35;8.63;;;10.90;96.20;;;;;;3551591;40;20033;-67
2021/04/29 03:48:19;;;;;;;17.23;8.57;;;10.90;97.30;;;;;;3542714;40;20802;-67
2021/04/29 03:50:44;;;;;;;16.20;8.23;;;10.80;97.40;;;;;;3544456;40;20035;-67
2021/04/29 03:53:11;;;;;;;16.33;8.73;;;10.80;97.70;;;;;;3544751;40;20030;-67
2021/04/29 03:55:37;;;;;;;17.20;9.38;;;10.80;98.20;;;;;;3547441;40;20038;-67
2021/04/29 03:58:03;;;;;;;18.60;8.38;;;10.90;97.80;;;;;;3551180;40;20043;-67
2021/04/29 04:00:28;;;;;;;14.82;8.32;;;10.80;98.60;;;;;;3550594;40;20073;-67
2021/04/29 04:02:54;;;;;;;15.68;8.93;;;10.70;97.30;;;;;;3559368;40;20026;-67
2021/04/29 04:05:20;;;;;;;17.70;9.15;;;10.60;97.30;;;;;;3548454;40;20414;-67
2021/04/29 04:07:45;;;;;;;16.98;8.10;;;10.70;97.50;;;;;;3552541;40;20034;-67
2021/04/29 04:10:11;;;;;;;18.92;9.35;;;10.70;98.00;;;;;;3551315;40;20083;-67
2021/04/29 04:12:37;;;;;;;15.98;8.45;;;10.70;99.10;;;;;;3550187;40;20664;-64
2021/04/29 04:15:04;;;;;;;17.00;8.50;;;10.70;99.90;;;;;;3552837;40;20049;-64
2021/04/29 04:17:30;;;;;;;19.75;9.15;;;10.50;99.90;;;;;;3549698;40;20041;-67
2021/04/29 04:19:55;;;;;;;18.15;9.02;;;10.50;99.90;;;;;;3544861;40;20034;-67
2021/04/29 04:22:21;;;;;;;17.42;8.82;;;10.50;99.90;;;;;;3544324;40;20030;-67
2021/04/29 04:24:47;;;;;;;20.65;8.50;;;10.50;99.70;;;;;;3548594;40;20034;-67
2021/04/29 04:27:12;;;;;;;20.10;8.32;;;10.40;99.90;;;;;;3552462;40;20042;-67
2021/04/29 04:29:38;;;;;;;17.13;9.10;;;10.40;99.90;;;;;;3549826;40;20046;-67
2021/04/29 04:32:04;;;;;;;17.30;8.00;;;10.40;99.90;;;;;;3544446;40;20554;-67
2021/04/29 04:34:30;;;;;;;19.05;8.73;;;10.50;99.90;;;;;;3551353;40;20049;-67
2021/04/29 04:36:56;;;;;;;16.88;8.98;;;10.50;99.90;;;;;;3549744;40;20069;-67
2021/04/29 04:39:21;;;;;;;18.70;9.02;;;10.60;99.90;;;;;;3550409;40;20025;-67
2021/04/29 04:41:47;;;;;;;17.83;9.15;;;10.60;99.50;;;;;;3549119;40;20132;-67
2021/04/29 04:44:13;;;;;;;21.23;9.00;;;10.70;99.80;;;;;;3558339;40;20058;-67
2021/04/29 04:46:39;;;;;;;15.63;8.52;;;10.60;99.90;;;;;;3553174;40;20018;-67
2021/04/29 04:49:04;;;;;;;20.27;8.75;;;10.60;99.90;;;;;;3548064;40;20054;-67
2021/04/29 04:51:30;;;;;;;15.18;8.45;;;10.60;99.80;;;;;;3546021;40;20042;-67
2021/04/29 04:53:56;;;;;;;20.25;8.98;;;10.60;99.80;;;;;;3543301;40;20038;-67
2021/04/29 04:56:21;;;;;;;22.98;9.70;;;10.60;99.90;;;;;;3549866;40;20045;-67
2021/04/29 04:58:47;;;;;;;21.85;9.60;;;10.60;99.90;;;;;;3549323;40;20682;-67
2021/04/29 05:01:13;;;;;;;19.88;9.23;;;10.70;99.90;;;;;;3546180;40;20038;-67
2021/04/29 05:03:39;;;;;;;20.95;11.05;;;10.60;99.90;;;;;;3552682;40;20046;-68
2021/04/29 05:06:04;;;;;;;17.02;9.43;;;10.50;99.90;;;;;;3550213;40;20046;-67
2021/04/29 05:08:30;;;;;;;21.20;10.75;;;10.50;99.90;;;;;;3548669;40;20039;-67
2021/04/29 05:10:56;;;;;;;17.40;10.00;;;10.50;99.90;;;;;;3547523;40;20139;-67
2021/04/29 05:13:23;;;;;;;21.70;10.38;;;10.30;99.90;;;;;;3549498;40;20046;-64
2021/04/29 05:15:49;;;;;;;17.38;9.98;;;10.20;99.90;;;;;;3549620;40;20735;-65
2021/04/29 05:18:14;;;;;;;20.67;9.75;;;10.10;99.90;;;;;;3549100;40;20026;-64
2021/04/29 05:20:40;;;;;;;21.65;10.80;;;10.10;99.90;;;;;;3545492;40;20085;-64
2021/04/29 05:23:06;;;;;;;24.23;11.75;;;10.10;99.90;;;;;;3546420;40;20699;-64
2021/04/29 05:25:31;;;;;;;20.75;11.52;;;10.00;99.90;;;;;;3551559;40;20054;-65
2021/04/29 05:28:02;;;;;;;27.00;11.75;;;9.90;99.90;;;;;;3549257;40;20488;-65
2021/04/29 05:30:28;;;;;;;19.02;11.15;;;9.90;99.90;;;;;;3548061;40;20408;-65
2021/04/29 05:32:54;;;;;;;29.25;12.43;;;9.80;99.90;;;;;;3551212;40;20034;-66
2021/04/29 05:35:20;;;;;;;26.60;12.20;;;9.80;99.90;;;;;;3553688;40;20139;-66
2021/04/29 05:37:46;;;;;;;27.13;11.68;;;9.70;99.90;;;;;;3547893;40;20039;-67
2021/04/29 05:40:13;;;;;;;25.75;12.43;;;9.60;99.90;;;;;;3549034;40;20052;-68
2021/04/29 05:42:43;;;;;;;29.10;12.30;;;9.60;99.90;;;;;;3546748;40;20073;-69
2021/04/29 05:45:10;;;;;;;38.15;13.57;;;9.50;99.90;;;;;;3557514;40;20062;-68
2021/04/29 05:47:36;;;;;;;24.60;13.90;;;9.30;99.90;;;;;;3553353;40;20034;-66
2021/04/29 05:50:04;;;;;;;19.73;13.20;;;9.20;99.90;;;;;;3550711;40;20864;-65
2021/04/29 05:52:31;;;;;;;23.27;13.52;;;9.30;99.90;;;;;;3547601;40;20031;-67
2021/04/29 05:54:56;;;;;;;26.02;13.75;;;9.30;99.90;;;;;;3551826;40;20067;-67
2021/04/29 05:57:22;;;;;;;26.55;13.75;;;9.30;99.90;;;;;;3552798;40;20442;-67
2021/04/29 05:59:48;;;;;;;21.33;13.35;;;9.30;99.90;;;;;;3550917;40;20053;-67
2021/04/29 06:02:14;;;;;;;22.45;13.93;;;9.30;99.90;;;;;;3549524;40;20049;-67
2021/04/29 06:04:39;;;;;;;28.73;14.82;;;9.40;99.90;;;;;;3553487;40;20437;-67
2021/04/29 06:07:05;;;;;;;27.98;14.90;;;9.40;99.90;;;;;;3545820;40;20042;-67
2021/04/29 06:09:31;;;;;;;24.52;14.80;;;9.40;99.90;;;;;;3551800;40;20038;-67
2021/04/29 06:11:57;;;;;;;25.85;13.77;;;9.30;99.90;;;;;;3550189;40;20066;-67
2021/04/29 06:14:23;;;;;;;29.52;14.57;;;9.20;99.90;;;;;;3549189;40;20457;-67
2021/04/29 06:16:48;;;;;;;23.60;15.13;;;9.10;99.90;;;;;;3551904;40;20103;-67
2021/04/29 06:19:14;;;;;;;29.60;16.48;;;9.10;99.90;;;;;;3550688;40;20419;-66
2021/04/29 06:21:40;;;;;;;25.30;14.48;;;9.20;99.90;;;;;;3551225;40;20046;-66
2021/04/29 06:24:06;;;;;;;23.35;14.93;;;9.10;99.90;;;;;;3547377;40;20038;-67
2021/04/29 06:26:32;;;;;;;26.85;15.15;;;9.10;99.90;;;;;;3547147;40;20041;-66
2021/04/29 06:28:58;;;;;;;28.65;16.02;;;9.20;99.90;;;;;;3552730;40;20026;-66
2021/04/29 06:31:23;;;;;;;23.20;14.95;;;9.20;99.90;;;;;;3547420;40;20061;-66
2021/04/29 06:33:49;;;;;;;26.67;15.18;;;9.30;99.90;;;;;;3549541;40;20046;-66
2021/04/29 06:36:15;;;;;;;26.10;15.55;;;9.20;99.90;;;;;;3544828;40;20038;-67
2021/04/29 06:38:41;;;;;;;28.55;15.93;;;9.20;99.90;;;;;;3542144;40;20607;-66
2021/04/29 06:41:06;;;;;;;28.90;15.30;;;9.10;99.90;;;;;;3549700;40;20038;-67
2021/04/29 06:43:32;;;;;;;23.92;15.35;;;9.00;99.90;;;;;;3549657;40;20092;-67
2021/04/29 06:45:59;;;;;;;24.98;15.75;;;9.00;99.90;;;;;;3546470;40;20048;-67
2021/04/29 06:48:25;;;;;;;35.35;16.58;;;9.00;99.90;;;;;;3546233;40;20404;-66
2021/04/29 06:50:50;;;;;;;32.25;15.63;;;9.00;99.90;;;;;;3549269;40;20792;-66
2021/04/29 06:53:16;;;;;;;28.48;15.45;;;9.00;99.90;;;;;;3550355;40;20044;-67
2021/04/29 06:55:42;;;;;;;26.33;16.35;;;9.00;99.90;;;;;;3547826;40;20495;-66
2021/04/29 06:58:07;;;;;;;25.58;16.65;;;9.00;99.90;;;;;;3545293;40;20093;-67
2021/04/29 07:00:34;;;;;;;31.92;18.27;;;9.00;99.90;;;;;;3545380;40;20104;-66
2021/04/29 07:03:00;;;;;;;26.38;16.48;;;9.00;99.90;;;;;;3548114;40;20038;-66
2021/04/29 07:05:27;;;;;;;26.35;16.98;;;9.10;99.90;;;;;;3551147;40;20045;-66
2021/04/29 07:07:54;;;;;;;27.38;16.02;;;9.20;99.90;;;;;;3557347;40;20053;-66
2021/04/29 07:10:21;;;;;;;26.25;16.88;;;9.10;99.90;;;;;;3545566;40;20038;-66
2021/04/29 07:12:47;;;;;;;23.70;15.40;;;9.20;99.90;;;;;;3560150;40;20033;-66
2021/04/29 07:15:13;;;;;;;25.90;15.63;;;9.20;99.90;;;;;;3548613;40;20748;-66
2021/04/29 07:17:39;;;;;;;28.80;16.63;;;9.10;99.90;;;;;;3548735;40;20431;-66
2021/04/29 07:20:05;;;;;;;27.15;16.23;;;9.20;99.90;;;;;;3547710;40;20042;-66
2021/04/29 07:22:31;;;;;;;25.48;16.40;;;9.10;99.90;;;;;;3542172;40;20088;-66
2021/04/29 07:24:57;;;;;;;27.73;17.80;;;9.30;99.90;;;;;;3543283;40;20034;-66
2021/04/29 07:27:23;;;;;;;33.60;17.45;;;9.10;99.90;;;;;;3546456;40;20113;-66
2021/04/29 07:29:49;;;;;;;26.65;17.40;;;9.10;99.90;;;;;;3546448;40;20040;-67
2021/04/29 07:32:14;;;;;;;25.55;16.92;;;9.10;99.90;;;;;;3546533;40;20038;-67
2021/04/29 07:34:40;;;;;;;30.17;17.52;;;9.10;99.90;;;;;;3547913;40;20045;-68
2021/04/29 07:37:06;;;;;;;32.92;18.70;;;9.10;99.90;;;;;;3548381;40;20042;-67
2021/04/29 07:39:32;;;;;;;29.92;18.42;;;9.20;99.90;;;;;;3544606;40;20056;-67
2021/04/29 07:41:58;;;;;;;25.52;17.08;;;9.20;99.90;;;;;;3550567;40;20053;-67
2021/04/29 07:44:24;;;;;;;30.65;17.63;;;9.20;99.90;;;;;;3547225;40;20584;-67
2021/04/29 07:46:50;;;;;;;26.75;17.55;;;9.10;99.90;;;;;;3546758;40;20033;-70
2021/04/29 07:49:16;;;;;;;33.10;17.70;;;9.10;99.90;;;;;;3544481;40;20041;-68
2021/04/29 07:51:41;;;;;;;32.17;18.67;;;9.00;99.90;;;;;;3550462;40;20030;-68
2021/04/29 07:54:07;;;;;;;30.60;18.65;;;9.00;99.90;;;;;;3544270;40;20152;-67
2021/04/29 07:56:34;;;;;;;31.38;19.00;;;9.00;99.90;;;;;;3546923;40;20034;-67
2021/04/29 07:59:00;;;;;;;34.15;20.58;;;9.00;99.90;;;;;;3545039;40;20034;-68
2021/04/29 08:01:26;;;;;;;33.10;19.85;;;9.10;99.90;;;;;;3553874;40;20076;-67
2021/04/29 08:03:51;;;;;;;30.58;19.77;;;9.10;99.90;;;;;;3543971;40;20049;-67
2021/04/29 08:06:17;;;;;;;32.40;19.85;;;9.10;99.90;;;;;;3550159;40;20384;-67
2021/04/29 08:08:43;;;;;;;32.25;18.73;;;9.10;99.90;;;;;;3551017;40;20049;-67
2021/04/29 08:11:12;;;;;;;29.40;18.90;;;9.20;99.90;;;;;;3543470;40;20425;-67
2021/04/29 08:13:38;;;;;;;30.13;18.73;;;9.20;99.90;;;;;;3541782;40;20038;-67
2021/04/29 08:16:04;;;;;;;30.10;19.00;;;9.20;99.90;;;;;;3553365;40;20037;-68
2021/04/29 08:18:30;;;;;;;34.63;21.20;;;9.30;99.90;;;;;;3550077;40;20109;-67
2021/04/29 08:20:55;;;;;;;28.25;19.50;;;9.30;99.90;;;;;;3548378;40;20050;-67
2021/04/29 08:23:21;;;;;;;27.98;18.35;;;9.30;99.90;;;;;;3547144;40;20422;-67
2021/04/29 08:25:47;;;;;;;32.05;19.02;;;9.30;99.90;;;;;;3550068;40;20045;-67
2021/04/29 08:28:13;;;;;;;28.05;17.70;;;9.40;99.90;;;;;;3547231;40;20042;-68
2021/04/29 08:30:39;;;;;;;36.15;21.92;;;9.40;99.90;;;;;;3550432;40;20042;-68
2021/04/29 08:33:05;;;;;;;27.23;18.25;;;9.50;99.90;;;;;;3543410;40;20412;-68
2021/04/29 08:35:30;;;;;;;32.67;18.63;;;9.50;99.90;;;;;;3543680;40;20034;-68
2021/04/29 08:37:56;;;;;;;23.90;17.60;;;9.60;99.90;;;;;;3547330;40;20022;-67
2021/04/29 08:40:24;;;;;;;26.80;17.40;;;9.70;99.90;;;;;;3548055;40;20043;-67
2021/04/29 08:42:50;;;;;;;25.60;17.40;;;9.80;99.90;;;;;;3551702;40;20574;-69
2021/04/29 08:45:17;;;;;;;28.02;18.05;;;9.80;99.90;;;;;;3542372;40;20455;-68
2021/04/29 08:47:47;;;;;;;25.60;16.77;;;9.90;99.90;;;;;;3544512;40;20354;-68
2021/04/29 08:50:13;;;;;;;30.70;17.52;;;10.00;99.90;;;;;;3547681;40;20073;-68
2021/04/29 08:52:38;;;;;;;30.17;17.70;;;10.10;99.90;;;;;;3550989;40;20038;-68
2021/04/29 08:55:06;;;;;;;26.23;17.73;;;10.10;99.90;;;;;;3546402;40;20031;-68
2021/04/29 08:57:32;;;;;;;32.55;19.55;;;10.10;99.90;;;;;;3551597;40;20118;-68
2021/04/29 08:59:58;;;;;;;25.55;18.73;;;10.00;99.90;;;;;;3556290;40;20054;-68
2021/04/29 09:02:35;;;;;;;29.10;19.35;;;9.90;99.90;;;;;;3548962;40;20049;-68
2021/04/29 09:05:17;;;;;;;26.98;18.20;;;10.00;99.90;;;;;;3552826;40;20648;-68
2021/04/29 09:07:55;;;;;;;30.02;19.48;;;10.20;99.90;;;;;;3550832;40;20052;-68
2021/04/29 09:10:22;;;;;;;31.15;19.45;;;10.40;99.90;;;;;;3546518;40;20070;-68
2021/04/29 09:12:48;;;;;;;31.17;21.05;;;10.70;99.90;;;;;;3549470;40;20061;-69
2021/04/29 09:15:36;;;;;;;30.02;18.55;;;10.90;99.90;;;;;;3549684;40;20744;-68
2021/04/29 09:18:11;;;;;;;28.52;18.25;;;11.10;99.90;;;;;;3546873;40;20042;-68
2021/04/29 09:20:48;;;;;;;27.67;17.80;;;11.10;99.90;;;;;;3544003;40;20054;-68
2021/04/29 09:23:18;;;;;;;28.77;19.42;;;11.10;99.90;;;;;;3546058;40;20050;-68
2021/04/29 09:26:00;;;;;;;25.10;17.45;;;11.30;99.90;;;;;;3547954;40;20050;-67
2021/04/29 09:28:48;;;;;;;30.55;17.23;;;11.30;99.90;;;;;;3547228;40;20042;-68
2021/04/29 09:31:19;;;;;;;30.42;19.13;;;11.50;99.90;;;;;;3548972;40;20394;-68
2021/04/29 09:33:51;;;;;;;32.50;20.38;;;11.90;99.90;;;;;;3544991;40;20038;-68
2021/04/29 09:36:43;;;;;;;24.33;15.23;;;12.40;99.90;;;;;;3548890;40;20048;-70
2021/04/29 09:39:13;;;;;;;28.27;16.48;;;12.70;99.90;;;;;;3549423;40;20041;-67
2021/04/29 09:41:47;;;;;;;23.58;16.00;;;12.70;99.90;;;;;;3550176;40;20045;-69
2021/04/29 09:44:15;;;;;;;26.60;18.45;;;12.90;99.90;;;;;;3547702;40;20053;-67
2021/04/29 09:46:44;;;;;;;27.40;17.77;;;13.10;99.90;;;;;;3546802;40;20038;-68
2021/04/29 09:49:31;;;;;;;33.45;18.80;;;13.20;99.90;;;;;;3547900;40;20037;-68
2021/04/29 09:51:59;;;;;;;26.20;17.60;;;13.20;99.90;;;;;;3548337;40;20076;-67
2021/04/29 09:54:36;;;;;;;80.88;39.25;;;13.30;99.90;;;;;;3557292;40;20042;-68
2021/04/29 09:57:04;;;;;;;50.85;36.97;;;13.40;99.90;;;;;;3549661;40;20049;-68
2021/04/29 09:59:32;;;;;;;36.20;28.95;;;13.30;99.90;;;;;;3556979;40;20142;-68
2021/04/29 10:02:00;;;;;;;28.30;19.35;;;13.10;99.90;;;;;;3549863;40;20038;-69
2021/04/29 10:04:28;;;;;;;44.85;32.72;;;13.00;99.90;;;;;;3549159;40;20030;-69
2021/04/29 10:06:55;;;;;;;43.20;27.95;;;12.90;99.90;;;;;;3548742;40;20038;-69
2021/04/29 10:09:26;;;;;;;52.58;37.53;;;12.90;99.90;;;;;;3546662;40;20037;-69
2021/04/29 10:11:57;;;;;;;32.22;22.23;;;13.10;99.90;;;;;;3545887;40;20128;-70
2021/04/29 10:14:25;;;;;;;32.40;22.92;;;13.50;99.90;;;;;;3545683;40;20050;-68
2021/04/29 10:16:51;;;;;;;30.08;21.52;;;13.80;99.90;;;;;;3548116;40;20129;-69
2021/04/29 10:19:17;;;;;;;31.27;21.88;;;14.10;99.90;;;;;;3548756;40;20042;-70
2021/04/29 10:21:44;;;;;;;36.17;22.75;;;14.20;99.90;;;;;;3544176;40;20038;-69
2021/04/29 10:24:10;;;;;;;30.85;22.38;;;14.30;99.90;;;;;;3545909;40;20084;-69
2021/04/29 10:26:38;;;;;;;40.78;25.83;;;14.60;99.90;;;;;;3547304;40;20030;-69
2021/04/29 10:29:07;;;;;;;30.35;21.65;;;15.00;99.90;;;;;;3546273;40;20030;-67
2021/04/29 10:31:35;;;;;;;32.75;21.48;;;15.40;99.90;;;;;;3551671;40;20041;-69
2021/04/29 10:34:18;;;;;;;28.17;21.88;;;15.80;99.90;;;;;;3548735;40;20049;-68
2021/04/29 10:36:47;;;;;;;38.00;28.80;;;15.50;99.90;;;;;;3548221;40;20666;-67
2021/04/29 10:39:21;;;;;;;32.85;21.17;;;15.30;99.90;;;;;;3545864;40;20504;-67
2021/04/29 10:41:50;;;;;;;28.67;22.13;;;15.40;99.90;;;;;;3555981;40;20038;-67
2021/04/29 10:44:18;;;;;;;35.67;25.75;;;15.30;99.90;;;;;;3548753;40;20054;-67
2021/04/29 10:46:48;;;;;;;41.72;26.17;;;15.10;99.90;;;;;;3547425;40;20128;-67
2021/04/29 10:49:16;;;;;;;36.28;25.23;;;15.30;99.90;;;;;;3545938;40;20048;-67
2021/04/29 10:51:44;;;;;;;32.65;23.77;;;15.30;99.90;;;;;;3544186;40;20049;-66
2021/04/29 10:54:22;;;;;;;35.08;25.75;;;15.50;99.90;;;;;;3551588;40;20029;-66
2021/04/29 10:57:10;;;;;;;34.50;25.17;;;15.50;99.90;;;;;;3549856;40;20030;-66
2021/04/29 10:59:49;;;;;;;41.97;28.15;;;15.40;99.90;;;;;;3544594;40;20034;-66
2021/04/29 11:02:36;;;;;;;31.38;23.38;;;15.70;99.90;;;;;;3549386;40;20042;-66
2021/04/29 11:05:07;;;;;;;36.65;26.60;;;16.20;99.90;;;;;;3550471;40;20255;-66
2021/04/29 11:07:47;;;;;;;34.60;24.08;;;16.40;99.90;;;;;;3543191;40;20037;-66
2021/04/29 11:10:14;;;;;;;37.95;25.52;;;16.50;99.90;;;;;;3548449;40;20455;-66
2021/04/29 11:12:57;;;;;;;38.00;26.45;;;16.80;99.90;;;;;;3546054;40;20035;-66
2021/04/29 11:15:26;;;;;;;28.13;19.88;;;16.90;99.90;;;;;;3547462;40;20048;-67
2021/04/29 11:18:14;;;;;;;28.45;20.00;;;16.70;99.90;;;;;;3549844;40;20074;-67
2021/04/29 11:20:44;;;;;;;30.27;22.13;;;16.70;99.90;;;;;;3552544;40;20038;-67
2021/04/29 11:23:11;;;;;;;27.98;19.25;;;16.70;99.90;;;;;;3549839;40;20038;-68
2021/04/29 11:25:38;;;;;;;27.63;19.90;;;16.90;99.90;;;;;;3551344;40;20030;-66
2021/04/29 11:28:04;;;;;;;24.42;18.42;;;16.90;99.90;;;;;;3550432;40;20046;-69
2021/04/29 11:30:30;;;;;;;29.08;20.55;;;17.30;99.90;;;;;;3546019;40;20038;-66
2021/04/29 11:32:58;;;;;;;28.45;18.85;;;17.50;99.90;;;;;;3546096;40;20034;-65
2021/04/29 11:35:26;;;;;;;27.08;18.20;;;17.80;99.90;;;;;;3548645;40;20042;-65
2021/04/29 11:37:52;;;;;;;22.73;17.02;;;17.90;99.90;;;;;;3542803;40;20030;-65
2021/04/29 11:40:18;;;;;;;25.67;17.08;;;17.80;99.90;;;;;;3540815;40;20050;-65
2021/04/29 11:43:04;;;;;;;20.90;15.95;;;17.90;99.90;;;;;;3543194;40;20034;-66
2021/04/29 11:45:32;;;;;;;;;;;17.90;99.90;;;;;;3556047;40;20077;-66
2021/04/29 11:47:59;;;;;;;21.98;16.70;;;18.10;99.90;;;;;;3538663;40;20010;-68
2021/04/29 11:50:33;;;;;;;22.50;17.80;;;18.20;99.90;;;;;;3540198;40;20037;-66
2021/04/29 11:53:13;;;;;;;22.70;16.80;;;18.20;99.90;;;;;;3545681;40;20121;-66
2021/04/29 11:55:44;;;;;;;22.23;17.40;;;17.80;99.90;;;;;;3541116;40;20038;-66
2021/04/29 11:58:19;;;;;;;24.40;18.13;;;17.60;99.90;;;;;;3544257;40;20045;-66
2021/04/29 12:00:48;;;;;;;23.27;17.75;;;17.20;99.90;;;;;;3539618;40;20046;-67
2021/04/29 12:03:14;;;;;;;25.27;18.00;;;16.80;99.90;;;;;;3543249;40;20311;-66
2021/04/29 12:05:45;;;;;;;23.48;18.17;;;16.60;99.90;;;;;;3543177;40;20200;-67
2021/04/29 12:08:14;;;;;;;30.85;19.45;;;16.80;99.90;;;;;;3543629;40;20041;-68
2021/04/29 12:10:58;;;;;;;22.95;17.00;;;17.20;99.90;;;;;;3547664;40;20054;-67
2021/04/29 12:13:41;;;;;;;26.05;17.52;;;17.80;99.90;;;;;;3545694;40;20072;-67
2021/04/29 12:16:21;;;;;;;30.00;16.83;;;18.20;99.80;;;;;;3544003;40;20045;-67
2021/04/29 12:18:49;;;;;;;23.95;16.13;;;18.20;99.20;;;;;;3552056;40;20095;-67
2021/04/29 12:21:17;;;;;;;23.23;16.60;;;18.30;99.40;;;;;;3540142;40;20094;-67
2021/04/29 12:23:44;;;;;;;20.60;15.93;;;18.40;99.40;;;;;;3551594;40;20034;-66
2021/04/29 12:26:11;;;;;;;19.92;15.00;;;18.50;99.90;;;;;;3546419;40;20139;-66
2021/04/29 12:28:40;;;;;;;23.00;14.80;;;18.70;98.90;;;;;;3544227;40;20436;-66
2021/04/29 12:31:17;;;;;;;17.10;13.07;;;18.80;98.50;;;;;;3547185;40;20026;-66
2021/04/29 12:34:16;;;;;;;19.80;12.63;;;19.00;96.70;;;;;;3546606;40;20058;-67
2021/04/29 12:36:51;;;;;;;19.67;12.57;;;18.80;95.10;;;;;;3546947;40;20880;-67
2021/04/29 12:39:22;;;;;;;21.20;12.32;;;18.70;96.30;;;;;;3542408;40;20128;-66